Portada
METAR-TAF:

METAR-TAF

Aeropuertos :

Aeropuerto Internacional de Funafuti

Funafuti, Tuvalu

latitud: 08-31S, longitud: 179-13E, altitud: 1 m

Observación

El informe se hizo hace 12 minutos, a las 02:00 UTC
Viento 4 kt del sur
Temperatura 32°C
Humedad 67%
Presión 1010 hPa
Visibilidad 10 km o más
Escasas nubes a una altura de 2000 ft
Cielo nuboso a una altura de 30000 ft

METAR: NGFU 290200Z 17004KT 9999 FEW020 BKN300 32/25 Q1010

Hora: 14:12 (02:12 UTC)

Pronóstico

El informe se hizo hace 2 horas y 53 minutos, a las 23:19 UTC
Pronóstico válido del 29 a las 00 UTC al 29 a las 24 UTC
Viento 8 kt del sureste
Visibilidad 10 km o más
Nubes dispersas a una altura de 1800 ft
chaparrones de lluvia

TAF: NGFU 282319Z 2900/2924 13008KT 9999 -SHRA SCT018

Observaciones y pronósticos meteorológicos de más de 4000 aeropuertos (mensajes METAR y TAF).

Los puntos amarillos y rojos representan las estaciones disponibles.

Ponga el ratón en el punto deseado para ver el nombre de la estación.

Haga clic para ver las observaciones y los pronósticos meteorológicos.

Para cambiar el mapa : haga clic en los botones verdes con una cruz de color negro para hacer un zoom, en el botón verde con un guión para alejar o en las flechas verdes para mapas adyacentes.


METAR-TAF: